Terminal Aerodrome Forecast
Issued by NWS

Home | Current Version | Previous Version | Text Only | Print | Product List | Glossary On
Versions: 1 2 3 4 5 6 7 8 9 10 11 12 13 14 15 16 17 18 19 20 21 22 23 24 25 26 27 28 29 30 31 32 33 34 35 36 37 38 39 40
000
FTUS43 KGRB 290800 AAA
TAFRHI
TAF AMD
KRHI 290821Z 2908/3006 16006KT 2SM BR OVC004
      TEMPO 2912/2916 4SM BR BKN008
     FM291600 18007KT 6SM HZ BKN012
     FM292000 22007KT P6SM SCT015 SCT140
     FM300300 25005KT P6SM SCT015 BKN140=

USA.gov is the U.S. government's official web portal to all federal, state and local government web resources and services.